Latest Weather Observations for Fawkner Beacon

IDV60901

Issued at 12:31 am EST Sunday 26 June 2022 (issued every 10 minutes, with the page automatically refreshed every 10 minutes)

About weather observations | Map of Melbourne area stations | Latest observations for Melbourne area | Other Formats
Station Details ID: 086376 Name: FAWKNER BEACON Lat: -37.95 Lon: 144.93 Height: 17.0 m
Data from the previous 72 hours. | See also: Recent months at Fawkner Beacon
Date/Time
EST
Temp
°C
App
Temp
°C
Dew
Point
°C
Rel
Hum
%
Delta-T
°C
Wind Press
QNH
hPa
Press
MSL
hPa
Rain since
9am
mm
Dir  Spd
km/h
Gust
km/h
Spd
kts
Gust
kts
26/12:30am - - - - - N 37 43 20 23 - - -
26/12:00am - - - - - N 35 41 19 22 - - -
 
Date/Time
EST
Temp
°C
App
Temp
°C
Dew
Point
°C
Rel
Hum
%
Delta-T
°C
Wind Press
QNH
hPa
Press
MSL
hPa
Rain since
9am
mm
Dir  Spd
km/h
Gust
km/h
Spd
kts
Gust
kts
25/11:30pm - - - - - N 33 39 18 21 - - -
25/11:00pm - - - - - N 33 39 18 21 - - -
25/10:30pm - - - - - N 32 35 17 19 - - -
25/10:00pm - - - - - N 35 41 19 22 - - -
25/09:30pm - - - - - N 32 39 17 21 - - -
25/09:00pm - - - - - N 33 39 18 21 - - -
25/08:30pm - - - - - N 33 41 18 22 - - -
25/08:00pm - - - - - N 33 39 18 21 - - -
25/07:30pm - - - - - N 32 41 17 22 - - -
25/07:00pm - - - - - N 32 39 17 21 - - -
25/06:30pm - - - - - N 33 41 18 22 - - -
25/06:00pm - - - - - N 35 46 19 25 - - -
25/05:30pm - - - - - N 37 44 20 24 - - -
25/05:00pm - - - - - NNW 35 43 19 23 - - -
25/04:30pm - - - - - N 37 44 20 24 - - -
25/04:00pm - - - - - NNW 28 32 15 17 - - -
25/03:30pm - - - - - NW 28 35 15 19 - - -
25/03:00pm - - - - - NW 32 35 17 19 - - -
25/02:30pm - - - - - NW 32 41 17 22 - - -
25/02:00pm - - - - - NW 39 46 21 25 - - -
25/01:30pm - - - - - NW 41 50 22 27 - - -
25/01:00pm - - - - - NW 37 44 20 24 - - -
25/12:30pm - - - - - NW 35 44 19 24 - - -
25/12:00pm - - - - - NW 33 44 18 24 - - -
25/11:30am - - - - - NNW 33 44 18 24 - - -
25/11:00am - - - - - NNW 30 39 16 21 - - -
25/10:30am - - - - - NNW 30 33 16 18 - - -
25/10:00am - - - - - N 28 33 15 18 - - -
25/09:30am - - - - - N 26 30 14 16 - - -
25/09:00am - - - - - N 26 32 14 17 - - -
25/08:30am - - - - - N 30 33 16 18 - - -
25/08:00am - - - - - N 30 35 16 19 - - -
25/07:30am - - - - - N 28 33 15 18 - - -
25/07:00am - - - - - N 32 39 17 21 - - -
25/06:30am - - - - - N 32 39 17 21 - - -
25/06:00am - - - - - N 35 41 19 22 - - -
25/05:30am - - - - - N 33 41 18 22 - - -
25/05:00am - - - - - N 30 35 16 19 - - -
25/04:30am - - - - - NNW 28 32 15 17 - - -
25/04:00am - - - - - NNW 28 35 15 19 - - -
25/03:30am - - - - - NNW 26 30 14 16 - - -
25/03:00am - - - - - NNW 24 30 13 16 - - -
25/02:30am - - - - - NNW 20 24 11 13 - - -
25/02:00am - - - - - N 20 24 11 13 - - -
25/01:30am - - - - - N 19 22 10 12 - - -
25/01:00am - - - - - N 20 24 11 13 - - -
25/12:30am - - - - - NNW 15 20 8 11 - - -
25/12:00am - - - - - N 15 20 8 11 - - -
 
Date/Time
EST
Temp
°C
App
Temp
°C
Dew
Point
°C
Rel
Hum
%
Delta-T
°C
Wind Press
QNH
hPa
Press
MSL
hPa
Rain since
9am
mm
Dir  Spd
km/h
Gust
km/h
Spd
kts
Gust
kts
24/11:30pm - - - - - N 20 26 11 14 - - -
24/11:00pm - - - - - N 17 22 9 12 - - -
24/10:30pm - - - - - N 19 22 10 12 - - -
24/10:00pm - - - - - NW 13 17 7 9 - - -
24/09:30pm - - - - - WNW 19 22 10 12 - - -
24/09:00pm - - - - - NW 19 24 10 13 - - -
24/08:30pm - - - - - NW 13 15 7 8 - - -
24/08:00pm - - - - - WNW 15 20 8 11 - - -
24/07:30pm - - - - - WSW 24 28 13 15 - - -
24/07:00pm - - - - - WSW 26 32 14 17 - - -
24/06:30pm - - - - - WSW 24 26 13 14 - - -
24/06:00pm - - - - - WSW 20 24 11 13 - - -
24/05:30pm - - - - - WSW 17 22 9 12 - - -
24/05:00pm - - - - - W 9 13 5 7 - - -
24/04:30pm - - - - - NW 7 9 4 5 - - -
24/04:00pm - - - - - WNW 9 11 5 6 - - -
24/03:30pm - - - - - W 11 15 6 8 - - -
24/03:00pm - - - - - SW 22 30 12 16 - - -
24/02:30pm - - - - - SW 37 44 20 24 - - -
24/02:19pm - - - - - WSW 26 48 14 26 - - -
24/02:00pm - - - - - WSW 17 20 9 11 - - -
24/01:30pm - - - - - WSW 15 20 8 11 - - -
24/01:00pm - - - - - W 24 28 13 15 - - -
24/12:30pm - - - - - W 17 22 9 12 - - -
24/12:00pm - - - - - WNW 22 26 12 14 - - -
24/11:30am - - - - - NW 22 26 12 14 - - -
24/11:00am - - - - - WNW 19 24 10 13 - - -
24/10:30am - - - - - WNW 26 32 14 17 - - -
24/10:00am - - - - - WNW 28 33 15 18 - - -
24/09:30am - - - - - NW 28 32 15 17 - - -
24/09:00am - - - - - NW 28 32 15 17 - - -
24/08:30am - - - - - WNW 30 35 16 19 - - -
24/08:00am - - - - - NW 26 30 14 16 - - -
24/07:30am - - - - - NNW 22 26 12 14 - - -
24/07:00am - - - - - N 26 30 14 16 - - -
24/06:30am - - - - - N 28 33 15 18 - - -
24/06:00am - - - - - N 32 41 17 22 - - -
24/05:30am - - - - - N 32 39 17 21 - - -
24/05:00am - - - - - N 39 46 21 25 - - -
24/04:30am - - - - - N 39 44 21 24 - - -
24/04:00am - - - - - N 41 52 22 28 - - -
24/03:30am - - - - - N 44 57 24 31 - - -
24/03:00am - - - - - N 43 50 23 27 - - -
24/02:30am - - - - - N 46 57 25 31 - - -
24/02:00am - - - - - N 48 59 26 32 - - -
24/01:30am - - - - - N 56 69 30 37 - - -
24/01:00am - - - - - N 50 61 27 33 - - -
24/12:30am - - - - - N 50 61 27 33 - - -
24/12:00am - - - - - N 57 69 31 37 - - -
 
Date/Time
EST
Temp
°C
App
Temp
°C
Dew
Point
°C
Rel
Hum
%
Delta-T
°C
Wind Press
QNH
hPa
Press
MSL
hPa
Rain since
9am
mm
Dir  Spd
km/h
Gust
km/h
Spd
kts
Gust
kts
23/11:30pm - - - - - N 57 69 31 37 - - -
23/11:00pm - - - - - N 57 70 31 38 - - -
23/10:30pm - - - - - N 54 63 29 34 - - -
23/10:00pm - - - - - N 46 54 25 29 - - -
23/09:30pm - - - - - N 44 57 24 31 - - -
23/09:00pm - - - - - N 44 50 24 27 - - -
23/08:30pm - - - - - N 44 57 24 31 - - -
23/08:00pm - - - - - N 39 43 21 23 - - -
23/07:30pm - - - - - N 39 44 21 24 - - -
23/07:00pm - - - - - N 39 44 21 24 - - -
23/06:30pm - - - - - N 37 44 20 24 - - -
23/06:00pm - - - - - N 39 44 21 24 - - -
23/05:30pm - - - - - N 43 50 23 27 - - -
23/05:00pm - - - - - N 41 48 22 26 - - -
23/04:30pm - - - - - N 39 43 21 23 - - -
23/04:00pm - - - - - N 35 41 19 22 - - -
23/03:30pm - - - - - N 33 43 18 23 - - -
23/03:00pm - - - - - N 39 48 21 26 - - -
23/02:30pm - - - - - N 41 48 22 26 - - -
23/02:00pm - - - - - N 39 44 21 24 - - -
23/01:30pm - - - - - N 32 39 17 21 - - -
23/01:00pm - - - - - N 39 44 21 24 - - -
23/12:30pm - - - - - NNW 41 48 22 26 - - -
23/12:00pm - - - - - N 30 35 16 19 - - -
23/11:30am - - - - - N 28 33 15 18 - - -
23/11:00am - - - - - NNW 32 35 17 19 - - -
23/10:30am - - - - - N 26 28 14 15 - - -
23/10:00am - - - - - N 28 32 15 17 - - -
23/09:30am - - - - - N 30 35 16 19 - - -
23/09:00am - - - - - N 26 30 14 16 - - -
23/08:30am - - - - - N 30 33 16 18 - - -
23/08:00am - - - - - NNW 28 32 15 17 - - -
23/07:30am - - - - - NNW 32 39 17 21 - - -
23/07:00am - - - - - N 28 32 15 17 - - -
23/06:30am - - - - - N 28 32 15 17 - - -
23/06:00am - - - - - N 30 32 16 17 - - -
23/05:30am - - - - - N 30 33 16 18 - - -
23/05:00am - - - - - N 32 35 17 19 - - -
23/04:30am - - - - - N 30 35 16 19 - - -
23/04:00am - - - - - N 30 33 16 18 - - -
23/03:30am - - - - - N 26 30 14 16 - - -
23/03:00am - - - - - N 26 30 14 16 - - -
23/02:30am - - - - - N 24 28 13 15 - - -
23/02:00am - - - - - N 24 28 13 15 - - -
23/01:30am - - - - - N 26 32 14 17 - - -
23/01:00am - - - - - N 30 33 16 18 - - -

Latest Capital City Observations: Canberra | Sydney | Melbourne | Brisbane | Adelaide | Perth | Hobart | Darwin

Other formats

Comma delimited format used in spreadsheet applications
http://www.bom.gov.au/fwo/IDV60901/IDV60901.95872.axf

JavaScript Object Notation format (JSON) in row-major order
http://www.bom.gov.au/fwo/IDV60901/IDV60901.95872.json

Data quality

Most of these data are generated automatically and are frequently updated. Quality checks on data are not normally performed. It is possible for incorrect values to appear. Refer to information at About Latest Weather Observations and please check the disclaimer before using these data.